createdAt,value
2018-08-28T00:00:42.377Z,22.62
2018-08-28T00:01:45.837Z,22.63
2018-08-28T00:02:49.267Z,22.60
2018-08-28T00:03:53.304Z,22.60
2018-08-28T00:04:56.706Z,22.60
2018-08-28T00:06:00.105Z,22.61
2018-08-28T00:07:03.548Z,22.60
2018-08-28T00:08:06.973Z,22.60
2018-08-28T00:09:10.369Z,22.61
2018-08-28T00:10:13.825Z,22.61
2018-08-28T00:11:17.303Z,22.61
2018-08-28T00:12:20.769Z,22.61
2018-08-28T00:13:24.223Z,22.60
2018-08-28T00:14:27.611Z,22.60
2018-08-28T00:15:31.024Z,22.58
2018-08-28T00:16:34.440Z,22.59
2018-08-28T00:17:37.881Z,22.59
2018-08-28T00:18:41.545Z,22.54
2018-08-28T00:19:44.944Z,22.59
2018-08-28T00:20:48.317Z,22.59
2018-08-28T00:21:51.731Z,22.59
2018-08-28T00:22:55.136Z,22.58
2018-08-28T00:23:58.541Z,22.59
2018-08-28T00:25:01.993Z,22.56
2018-08-28T00:26:05.385Z,22.57
2018-08-28T00:27:09.013Z,22.57
2018-08-28T00:28:12.428Z,22.58
2018-08-28T00:29:15.863Z,22.59
2018-08-28T00:30:19.272Z,22.59
2018-08-28T00:31:22.704Z,22.59
2018-08-28T00:32:26.202Z,22.60
2018-08-28T00:33:29.605Z,22.55
2018-08-28T00:34:33.364Z,22.62
2018-08-28T00:35:36.785Z,22.57
2018-08-28T00:36:40.171Z,22.61
2018-08-28T00:37:43.537Z,22.61
2018-08-28T00:38:46.937Z,22.60
2018-08-28T00:39:50.329Z,22.58
2018-08-28T00:40:53.711Z,22.57
2018-08-28T00:41:57.162Z,22.57
2018-08-28T00:43:00.675Z,22.57
2018-08-28T00:44:04.113Z,22.57
2018-08-28T00:45:07.757Z,22.56
2018-08-28T00:46:11.153Z,22.56
2018-08-28T00:47:14.557Z,22.56
2018-08-28T00:48:17.950Z,22.55
2018-08-28T00:49:21.366Z,22.54
2018-08-28T00:50:24.775Z,22.56
2018-08-28T00:51:28.203Z,22.55
2018-08-28T00:52:31.658Z,22.55
2018-08-28T00:53:35.041Z,22.54
2018-08-28T00:54:38.452Z,22.54
2018-08-28T00:55:41.896Z,22.55
2018-08-28T00:56:45.350Z,22.56
2018-08-28T00:57:48.779Z,22.56
2018-08-28T00:58:52.201Z,22.58
2018-08-28T00:59:55.572Z,22.58
2018-08-28T01:00:58.933Z,22.58
2018-08-28T01:02:02.326Z,22.59
2018-08-28T01:03:05.929Z,22.59
2018-08-28T01:04:09.317Z,22.59
2018-08-28T01:05:12.681Z,22.60
2018-08-28T01:06:16.045Z,22.60
2018-08-28T01:07:19.438Z,22.59
2018-08-28T01:08:22.800Z,22.60
2018-08-28T01:09:26.206Z,22.59
2018-08-28T01:10:29.568Z,22.56
2018-08-28T01:11:32.964Z,22.60
2018-08-28T01:12:36.382Z,22.60
2018-08-28T01:13:39.829Z,22.59
2018-08-28T01:14:43.309Z,22.58
2018-08-28T01:15:46.732Z,22.58
2018-08-28T01:16:50.138Z,22.59
2018-08-28T01:17:54.238Z,22.59
2018-08-28T01:18:57.642Z,22.60
2018-08-28T01:20:01.021Z,22.58
2018-08-28T01:21:04.397Z,22.58
2018-08-28T01:22:07.805Z,22.58
2018-08-28T01:23:11.199Z,22.58
2018-08-28T01:24:14.620Z,22.58
2018-08-28T01:25:17.999Z,22.58
2018-08-28T01:26:21.452Z,22.50
2018-08-28T01:27:24.850Z,22.59
2018-08-28T01:28:28.375Z,22.59
2018-08-28T01:29:31.750Z,22.59
2018-08-28T01:30:36.069Z,22.58
2018-08-28T01:31:39.512Z,22.58
2018-08-28T01:32:42.893Z,22.56
2018-08-28T01:33:46.253Z,22.57
2018-08-28T01:34:49.674Z,22.57
2018-08-28T01:35:53.042Z,22.57
2018-08-28T01:36:56.494Z,22.56
2018-08-28T01:37:59.985Z,22.57
2018-08-28T01:39:03.562Z,22.58
2018-08-28T01:40:07.001Z,22.57
2018-08-28T01:41:10.489Z,22.58
2018-08-28T01:42:18.377Z,22.57
2018-08-28T01:43:24.608Z,22.56
2018-08-28T01:44:28.064Z,22.56
2018-08-28T01:45:31.480Z,22.55
2018-08-28T01:46:34.977Z,22.55
2018-08-28T01:47:38.402Z,22.56
2018-08-28T01:48:41.815Z,22.56
2018-08-28T01:49:45.368Z,22.56
2018-08-28T01:50:48.818Z,22.56
2018-08-28T01:51:52.215Z,22.57
2018-08-28T01:52:55.606Z,22.57
2018-08-28T01:53:59.008Z,22.57
2018-08-28T01:55:02.397Z,22.57
2018-08-28T01:56:05.851Z,22.57
2018-08-28T01:57:09.261Z,22.56
2018-08-28T01:58:12.687Z,22.56
2018-08-28T01:59:16.092Z,22.57
2018-08-28T02:00:19.489Z,22.57
2018-08-28T02:01:23.030Z,22.57
2018-08-28T02:02:26.430Z,22.57
2018-08-28T02:03:29.832Z,22.56
2018-08-28T02:04:33.224Z,22.57
2018-08-28T02:05:36.622Z,22.56
2018-08-28T02:06:40.240Z,22.56
2018-08-28T02:07:43.599Z,22.56
2018-08-28T02:08:47.020Z,22.50
2018-08-28T02:09:50.388Z,22.56
2018-08-28T02:10:53.741Z,22.56
2018-08-28T02:11:57.166Z,22.56
2018-08-28T02:13:00.613Z,22.57
2018-08-28T02:14:04.078Z,22.59
2018-08-28T02:15:07.542Z,22.59
2018-08-28T02:16:10.967Z,22.59
2018-08-28T02:17:14.384Z,22.59
2018-08-28T02:18:17.787Z,22.60
2018-08-28T02:19:21.226Z,22.60
2018-08-28T02:20:24.676Z,22.60
2018-08-28T02:21:28.092Z,22.59
2018-08-28T02:22:31.578Z,22.61
2018-08-28T02:23:34.985Z,22.60
2018-08-28T02:24:38.632Z,22.60
2018-08-28T02:25:42.085Z,22.61
2018-08-28T02:26:45.557Z,22.59
2018-08-28T02:27:48.986Z,22.59
2018-08-28T02:28:52.369Z,22.60
2018-08-28T02:29:55.764Z,22.61
2018-08-28T02:30:59.168Z,22.60
2018-08-28T02:32:02.602Z,22.61
2018-08-28T02:33:06.241Z,22.60
2018-08-28T02:34:09.744Z,22.60
2018-08-28T02:35:13.138Z,22.59
2018-08-28T02:36:16.490Z,22.59
2018-08-28T02:37:19.894Z,22.58
2018-08-28T02:38:23.312Z,22.58
2018-08-28T02:39:26.746Z,22.59
2018-08-28T02:40:30.111Z,22.57
2018-08-28T02:41:33.517Z,22.57
2018-08-28T02:42:36.938Z,22.58
2018-08-28T02:43:40.435Z,22.57
2018-08-28T02:44:43.869Z,22.56
2018-08-28T02:45:47.250Z,22.57
2018-08-28T02:46:50.648Z,22.52
2018-08-28T02:47:54.076Z,22.58
2018-08-28T02:48:57.502Z,22.58
2018-08-28T02:50:00.892Z,22.58
2018-08-28T02:51:04.283Z,22.58
2018-08-28T02:52:07.662Z,22.53
2018-08-28T02:53:11.083Z,22.58
2018-08-28T02:54:14.474Z,22.57
2018-08-28T02:55:17.877Z,22.53
2018-08-28T02:56:21.305Z,22.57
2018-08-28T02:57:24.809Z,22.57
2018-08-28T02:58:28.263Z,22.56
2018-08-28T02:59:31.675Z,22.57
2018-08-28T03:00:35.046Z,22.56
2018-08-28T03:01:38.438Z,22.57
2018-08-28T03:02:41.854Z,22.57
2018-08-28T03:03:45.336Z,22.56
2018-08-28T03:04:48.699Z,22.56
2018-08-28T03:05:52.065Z,22.56
2018-08-28T03:06:55.479Z,22.56
2018-08-28T03:07:58.895Z,22.52
2018-08-28T03:09:02.292Z,22.56
2018-08-28T03:10:05.806Z,22.57
2018-08-28T03:11:09.212Z,22.55
2018-08-28T03:12:12.567Z,22.55
2018-08-28T03:13:15.948Z,22.56
2018-08-28T03:14:19.386Z,22.51
2018-08-28T03:15:22.847Z,22.56
2018-08-28T03:16:26.257Z,22.55
2018-08-28T03:17:29.628Z,22.56
2018-08-28T03:18:32.987Z,22.55
2018-08-28T03:19:36.416Z,22.55
2018-08-28T03:20:39.829Z,22.54
2018-08-28T03:21:43.282Z,22.54
2018-08-28T03:22:46.691Z,22.53
2018-08-28T03:23:50.073Z,22.53
2018-08-28T03:24:53.558Z,22.53
2018-08-28T03:25:56.982Z,22.53
2018-08-28T03:27:00.380Z,22.52
2018-08-28T03:28:03.799Z,22.52
2018-08-28T03:29:07.273Z,22.52
2018-08-28T03:30:10.630Z,22.52
2018-08-28T03:31:14.036Z,22.53
2018-08-28T03:32:17.409Z,22.53
2018-08-28T03:33:20.791Z,22.52
2018-08-28T03:34:24.167Z,22.52
2018-08-28T03:35:27.756Z,22.51
2018-08-28T03:36:31.385Z,22.51
2018-08-28T03:37:34.782Z,22.52
2018-08-28T03:38:38.184Z,22.51
2018-08-28T03:39:41.599Z,22.51
2018-08-28T03:40:44.984Z,22.50
2018-08-28T03:41:48.376Z,22.51
2018-08-28T03:42:51.762Z,22.52
2018-08-28T03:43:55.448Z,22.53
2018-08-28T03:44:58.831Z,22.52
2018-08-28T03:46:02.266Z,22.52
2018-08-28T03:47:05.938Z,22.51
2018-08-28T03:48:09.361Z,22.50
2018-08-28T03:49:12.780Z,22.51
2018-08-28T03:50:16.195Z,22.50
2018-08-28T03:51:19.605Z,22.49
2018-08-28T03:52:23.031Z,22.50
2018-08-28T03:53:26.459Z,22.51
2018-08-28T03:54:29.930Z,22.45
2018-08-28T03:55:33.394Z,22.50
2018-08-28T03:56:36.724Z,22.49
2018-08-28T03:57:40.118Z,22.49
2018-08-28T03:58:43.485Z,22.48
2018-08-28T03:59:47.053Z,22.48
2018-08-28T04:00:50.448Z,22.47
2018-08-28T04:01:53.850Z,22.47
2018-08-28T04:02:57.414Z,22.48
2018-08-28T04:04:03.785Z,22.48
2018-08-28T04:05:07.298Z,22.47
2018-08-28T04:06:10.804Z,22.47
2018-08-28T04:07:14.186Z,22.48
2018-08-28T04:08:17.586Z,22.42
2018-08-28T04:09:20.991Z,22.39
2018-08-28T04:10:24.601Z,22.46
2018-08-28T04:11:28.002Z,22.45
2018-08-28T04:12:31.391Z,22.45
2018-08-28T04:13:34.803Z,22.45
2018-08-28T04:14:38.206Z,22.43
2018-08-28T04:15:41.596Z,22.43
2018-08-28T04:16:44.998Z,22.43
2018-08-28T04:17:49.829Z,22.42
2018-08-28T04:18:53.239Z,22.43
2018-08-28T04:19:56.724Z,22.42
2018-08-28T04:21:00.196Z,22.43
2018-08-28T04:22:03.618Z,22.42
2018-08-28T04:23:07.319Z,22.44
2018-08-28T04:24:10.738Z,22.44
2018-08-28T04:25:14.299Z,22.44
2018-08-28T04:26:17.756Z,22.40
2018-08-28T04:27:21.169Z,22.46
2018-08-28T04:28:24.570Z,22.45
2018-08-28T04:29:28.023Z,22.45
2018-08-28T04:30:31.489Z,22.45
2018-08-28T04:31:34.820Z,22.45
2018-08-28T04:32:38.223Z,22.45
2018-08-28T04:33:41.598Z,22.44
2018-08-28T04:34:44.958Z,22.44
2018-08-28T04:35:48.328Z,22.45
2018-08-28T04:36:51.713Z,22.45
2018-08-28T04:37:55.180Z,22.44
2018-08-28T04:38:58.647Z,22.45
2018-08-28T04:40:02.094Z,22.40
2018-08-28T04:41:05.692Z,22.45
2018-08-28T04:42:09.060Z,22.44
2018-08-28T04:43:12.487Z,22.45
2018-08-28T04:44:15.956Z,22.44
2018-08-28T04:45:19.376Z,22.41
2018-08-28T04:46:22.784Z,22.44
2018-08-28T04:47:26.389Z,22.43
2018-08-28T04:48:29.865Z,22.43
2018-08-28T04:49:33.256Z,22.45
2018-08-28T04:50:36.699Z,22.43
2018-08-28T04:51:40.109Z,22.43
2018-08-28T04:52:43.512Z,22.41
2018-08-28T04:53:46.922Z,22.43
2018-08-28T04:54:50.361Z,22.41
2018-08-28T04:55:53.808Z,22.42
2018-08-28T04:56:57.161Z,22.42
2018-08-28T04:58:00.548Z,22.42
2018-08-28T04:59:04.014Z,22.41
2018-08-28T05:00:08.195Z,22.40
2018-08-28T05:01:11.617Z,22.41
2018-08-28T05:02:15.005Z,22.39
2018-08-28T05:03:18.423Z,22.39
2018-08-28T05:04:21.802Z,22.39
2018-08-28T05:05:25.202Z,22.38
2018-08-28T05:06:28.604Z,22.38
2018-08-28T05:07:32.254Z,22.38
2018-08-28T05:08:35.728Z,22.36
2018-08-28T05:09:39.124Z,22.37
2018-08-28T05:10:42.471Z,22.31
2018-08-28T05:11:45.886Z,22.36
2018-08-28T05:12:49.342Z,22.35
2018-08-28T05:13:52.806Z,22.37
2018-08-28T05:14:56.188Z,22.36
2018-08-28T05:15:59.659Z,22.36
2018-08-28T05:17:03.340Z,22.35
2018-08-28T05:18:06.738Z,22.36
2018-08-28T05:19:10.197Z,22.35
2018-08-28T05:20:13.602Z,22.36
2018-08-28T05:21:16.992Z,22.34
2018-08-28T05:22:20.365Z,22.34
2018-08-28T05:23:23.781Z,22.35
2018-08-28T05:24:27.218Z,22.36
2018-08-28T05:25:30.662Z,22.36
2018-08-28T05:26:34.150Z,22.29
2018-08-28T05:27:37.564Z,22.37
2018-08-28T05:28:40.973Z,22.36
2018-08-28T05:29:44.397Z,22.38
2018-08-28T05:30:47.845Z,22.38
2018-08-28T05:31:51.346Z,22.38
2018-08-28T05:32:54.772Z,22.37
2018-08-28T05:33:58.184Z,22.40
2018-08-28T05:35:01.617Z,22.40
2018-08-28T05:36:05.030Z,22.40
2018-08-28T05:37:08.455Z,22.40
2018-08-28T05:38:11.943Z,22.41
2018-08-28T05:39:15.301Z,22.41
2018-08-28T05:40:18.713Z,22.43
2018-08-28T05:41:22.104Z,22.42
2018-08-28T05:42:25.536Z,22.36
2018-08-28T05:43:28.931Z,22.36
2018-08-28T05:44:32.311Z,22.39
2018-08-28T05:45:35.736Z,22.34
2018-08-28T05:46:39.128Z,22.30
2018-08-28T05:47:42.538Z,22.23
2018-08-28T05:48:45.936Z,22.23
2018-08-28T05:49:49.310Z,22.19
2018-08-28T05:50:52.760Z,22.15
2018-08-28T05:51:56.172Z,22.11
2018-08-28T05:52:59.543Z,22.08
2018-08-28T05:54:02.975Z,21.98
2018-08-28T05:55:06.426Z,22.00
2018-08-28T05:56:10.388Z,21.90
2018-08-28T05:57:18.951Z,21.91
2018-08-28T05:58:22.352Z,21.88
2018-08-28T05:59:25.805Z,21.86
2018-08-28T06:00:29.224Z,21.86
2018-08-28T06:01:32.610Z,21.83
2018-08-28T06:02:35.989Z,21.75
2018-08-28T06:03:39.377Z,21.79
2018-08-28T06:04:42.786Z,21.75
2018-08-28T06:05:46.212Z,21.75
2018-08-28T06:06:49.627Z,21.70
2018-08-28T06:07:53.121Z,21.70
2018-08-28T06:08:56.645Z,21.63
2018-08-28T06:10:00.039Z,21.64
2018-08-28T06:11:03.569Z,21.63
2018-08-28T06:12:07.026Z,21.61
2018-08-28T06:13:10.621Z,21.59
2018-08-28T06:14:14.065Z,21.58
2018-08-28T06:15:17.460Z,21.56
2018-08-28T06:16:20.899Z,21.55
2018-08-28T06:17:24.353Z,21.54
2018-08-28T06:18:27.848Z,21.52
2018-08-28T06:19:31.258Z,21.49
2018-08-28T06:20:34.635Z,21.53
2018-08-28T06:21:38.035Z,21.54
2018-08-28T06:22:41.455Z,21.52
2018-08-28T06:23:44.838Z,21.53
2018-08-28T06:24:48.212Z,21.52
2018-08-28T06:25:51.615Z,21.53
2018-08-28T06:26:55.036Z,21.53
2018-08-28T06:27:58.442Z,21.52
2018-08-28T06:29:01.855Z,21.53
2018-08-28T06:30:05.271Z,21.50
2018-08-28T06:31:08.679Z,21.52
2018-08-28T06:32:12.146Z,21.51
2018-08-28T06:33:15.559Z,21.49
2018-08-28T06:34:19.031Z,21.49
2018-08-28T06:35:22.507Z,21.48
2018-08-28T06:36:26.010Z,21.45
2018-08-28T06:37:29.488Z,21.43
2018-08-28T06:38:32.824Z,21.45
2018-08-28T06:39:36.220Z,21.46
2018-08-28T06:40:39.676Z,21.49
2018-08-28T06:41:43.062Z,21.50
2018-08-28T06:42:46.469Z,21.52
2018-08-28T06:43:49.917Z,21.51
2018-08-28T06:44:53.319Z,21.57
2018-08-28T06:45:56.698Z,21.58
2018-08-28T06:47:00.099Z,21.60
2018-08-28T06:48:03.512Z,21.62
2018-08-28T06:49:06.921Z,21.63
2018-08-28T06:50:10.358Z,21.61
2018-08-28T06:51:13.820Z,21.66
2018-08-28T06:52:17.197Z,21.67
2018-08-28T06:53:20.658Z,21.68
2018-08-28T06:54:24.144Z,21.69
2018-08-28T06:55:27.579Z,21.67
2018-08-28T06:56:31.064Z,21.71
2018-08-28T06:57:34.468Z,21.71
2018-08-28T06:58:37.904Z,21.73
2018-08-28T06:59:41.346Z,21.74
2018-08-28T07:00:44.710Z,21.74
2018-08-28T07:01:48.337Z,21.75
2018-08-28T07:02:51.790Z,21.72
2018-08-28T07:03:55.216Z,21.72
2018-08-28T07:04:58.666Z,21.76
2018-08-28T07:06:02.054Z,21.78
2018-08-28T07:07:05.542Z,21.79
2018-08-28T07:08:09.009Z,21.78
2018-08-28T07:09:13.720Z,21.75
2018-08-28T07:10:17.198Z,21.79
2018-08-28T07:11:20.558Z,21.80
2018-08-28T07:12:23.953Z,21.80
2018-08-28T07:13:27.373Z,21.80
2018-08-28T07:14:30.817Z,21.80
2018-08-28T07:15:34.256Z,21.82
2018-08-28T07:16:37.656Z,21.82
2018-08-28T07:17:41.271Z,21.82
2018-08-28T07:18:44.719Z,21.83
2018-08-28T07:19:48.116Z,21.82
2018-08-28T07:20:51.534Z,21.82
2018-08-28T07:21:54.990Z,21.83
2018-08-28T07:22:58.434Z,21.84
2018-08-28T07:24:01.876Z,21.83
2018-08-28T07:25:05.826Z,21.83
2018-08-28T07:26:09.355Z,21.84
2018-08-28T07:27:12.956Z,21.84
2018-08-28T07:28:16.383Z,21.85
2018-08-28T07:29:19.776Z,21.84
2018-08-28T07:30:23.220Z,21.85
2018-08-28T07:31:26.855Z,21.85
2018-08-28T07:32:30.186Z,21.85
2018-08-28T07:33:33.587Z,21.86
2018-08-28T07:34:36.958Z,21.83
2018-08-28T07:35:40.342Z,21.86
2018-08-28T07:36:43.868Z,21.88
2018-08-28T07:37:47.308Z,21.88
2018-08-28T07:38:50.697Z,21.88
2018-08-28T07:39:54.150Z,21.89
2018-08-28T07:40:57.576Z,21.90
2018-08-28T07:42:00.965Z,21.90
2018-08-28T07:43:04.435Z,21.89
2018-08-28T07:44:07.835Z,21.91
2018-08-28T07:45:11.260Z,21.91
2018-08-28T07:46:14.874Z,21.92
2018-08-28T07:47:18.272Z,21.91
2018-08-28T07:48:21.781Z,21.92
2018-08-28T07:49:25.222Z,21.92
2018-08-28T07:50:28.623Z,21.92
2018-08-28T07:51:31.998Z,21.93
2018-08-28T07:52:35.432Z,21.93
2018-08-28T07:53:38.959Z,21.93
2018-08-28T07:54:42.628Z,21.93
2018-08-28T07:55:46.067Z,21.94
2018-08-28T07:56:49.436Z,21.94
2018-08-28T07:57:52.823Z,21.95
2018-08-28T07:58:56.208Z,21.95
2018-08-28T07:59:59.586Z,21.94
2018-08-28T08:01:03.016Z,21.95
2018-08-28T08:02:06.502Z,21.95
2018-08-28T08:03:09.917Z,21.96
2018-08-28T08:04:13.366Z,21.96
2018-08-28T08:05:16.761Z,21.97
2018-08-28T08:06:20.164Z,21.97
2018-08-28T08:07:25.272Z,21.96
2018-08-28T08:08:28.674Z,21.96
2018-08-28T08:09:32.080Z,21.97
2018-08-28T08:10:35.610Z,21.97
2018-08-28T08:11:38.921Z,21.98
2018-08-28T08:12:42.520Z,21.98
2018-08-28T08:13:45.955Z,21.99
2018-08-28T08:14:49.334Z,21.99
2018-08-28T08:15:53.276Z,22.00
2018-08-28T08:16:56.708Z,21.99
2018-08-28T08:18:00.280Z,22.01
2018-08-28T08:19:03.713Z,21.98
2018-08-28T08:20:07.157Z,22.01
2018-08-28T08:21:10.582Z,22.00
2018-08-28T08:22:14.145Z,22.01
2018-08-28T08:23:17.468Z,22.01
2018-08-28T08:24:20.873Z,21.98
2018-08-28T08:25:24.329Z,22.01
2018-08-28T08:26:27.744Z,22.02
2018-08-28T08:27:31.156Z,22.02
2018-08-28T08:28:34.685Z,22.02
2018-08-28T08:29:38.095Z,22.02
2018-08-28T08:30:41.455Z,22.03
2018-08-28T08:31:44.869Z,22.00
2018-08-28T08:32:48.280Z,22.03
2018-08-28T08:33:51.759Z,22.05
2018-08-28T08:34:55.174Z,22.03
2018-08-28T08:35:58.605Z,22.03
2018-08-28T08:37:02.055Z,22.06
2018-08-28T08:38:05.513Z,22.06
2018-08-28T08:39:10.115Z,22.06
2018-08-28T08:40:13.486Z,22.06
2018-08-28T08:41:16.897Z,22.05
2018-08-28T08:42:20.278Z,22.06
2018-08-28T08:43:23.702Z,22.07
2018-08-28T08:44:27.215Z,22.08
2018-08-28T08:45:30.648Z,22.07
2018-08-28T08:46:34.095Z,22.08
2018-08-28T08:47:37.513Z,22.03
2018-08-28T08:48:40.907Z,22.08
2018-08-28T08:49:44.302Z,22.08
2018-08-28T08:50:47.714Z,22.09
2018-08-28T08:51:51.152Z,22.08
2018-08-28T08:52:54.565Z,22.09
2018-08-28T08:53:57.933Z,22.09
2018-08-28T08:55:01.430Z,22.08
2018-08-28T08:56:04.758Z,22.09
2018-08-28T08:57:08.189Z,22.08
2018-08-28T08:58:11.604Z,22.09
2018-08-28T08:59:15.055Z,22.10
2018-08-28T09:00:18.490Z,22.10
2018-08-28T09:01:22.086Z,22.10
2018-08-28T09:02:25.542Z,22.11
2018-08-28T09:03:28.985Z,22.11
2018-08-28T09:04:32.356Z,22.11
2018-08-28T09:05:35.765Z,22.12
2018-08-28T09:06:39.248Z,22.08
2018-08-28T09:07:42.661Z,22.10
2018-08-28T09:08:46.031Z,22.12
2018-08-28T09:09:49.440Z,22.13
2018-08-28T09:10:52.918Z,22.14
2018-08-28T09:11:56.326Z,22.12
2018-08-28T09:12:59.845Z,22.13
2018-08-28T09:14:03.303Z,22.14
2018-08-28T09:15:06.825Z,22.16
2018-08-28T09:16:10.276Z,22.16
2018-08-28T09:17:13.684Z,22.19
2018-08-28T09:18:17.090Z,22.18
2018-08-28T09:19:20.537Z,22.17
2018-08-28T09:20:23.899Z,22.17
2018-08-28T09:21:27.345Z,22.17
2018-08-28T09:22:30.803Z,22.17
2018-08-28T09:23:34.198Z,22.17
2018-08-28T09:24:37.597Z,22.17
2018-08-28T09:25:41.027Z,22.18
2018-08-28T09:26:44.432Z,22.18
2018-08-28T09:27:47.863Z,22.19
2018-08-28T09:28:51.258Z,22.21
2018-08-28T09:29:54.719Z,22.20
2018-08-28T09:30:58.127Z,22.21
2018-08-28T09:32:01.580Z,22.21
2018-08-28T09:33:05.066Z,22.23
2018-08-28T09:34:08.518Z,22.23
2018-08-28T09:35:11.959Z,22.23
2018-08-28T09:36:15.509Z,22.24
2018-08-28T09:37:18.931Z,22.24
2018-08-28T09:38:22.383Z,22.24
2018-08-28T09:39:25.793Z,22.24
2018-08-28T09:40:29.366Z,22.25
2018-08-28T09:41:32.816Z,22.24
2018-08-28T09:42:36.228Z,22.22
2018-08-28T09:43:39.660Z,22.25
2018-08-28T09:44:43.083Z,22.21
2018-08-28T09:45:46.462Z,22.25
2018-08-28T09:46:49.891Z,22.20
2018-08-28T09:47:53.296Z,22.25
2018-08-28T09:48:56.682Z,22.25
2018-08-28T09:50:00.170Z,22.19
2018-08-28T09:51:03.547Z,22.25
2018-08-28T09:52:07.000Z,22.25
2018-08-28T09:53:10.390Z,22.26
2018-08-28T09:54:13.832Z,22.25
2018-08-28T09:55:17.283Z,22.26
2018-08-28T09:56:20.675Z,22.27
2018-08-28T09:57:24.165Z,22.28
2018-08-28T09:58:27.814Z,22.28
2018-08-28T09:59:31.283Z,22.28
2018-08-28T10:00:38.816Z,22.29
2018-08-28T10:01:43.070Z,22.29
2018-08-28T10:02:46.521Z,22.29
2018-08-28T10:03:49.954Z,22.30
2018-08-28T10:04:53.427Z,22.31
2018-08-28T10:05:56.795Z,22.31
2018-08-28T10:07:00.178Z,22.30
2018-08-28T10:08:03.654Z,22.30
2018-08-28T10:09:11.968Z,22.29
2018-08-28T10:10:15.373Z,22.25
2018-08-28T10:11:18.790Z,22.30
2018-08-28T10:12:22.220Z,22.30
2018-08-28T10:13:25.734Z,22.25
2018-08-28T10:14:29.142Z,22.31
2018-08-28T10:15:32.517Z,22.30
2018-08-28T10:16:36.383Z,22.31
2018-08-28T10:17:39.819Z,22.32
2018-08-28T10:18:43.288Z,22.31
2018-08-28T10:19:46.712Z,22.32
2018-08-28T10:20:50.109Z,22.33
2018-08-28T10:21:53.500Z,22.33
2018-08-28T10:22:56.981Z,22.33
2018-08-28T10:24:00.388Z,22.33
2018-08-28T10:25:03.868Z,22.33
2018-08-28T10:26:07.329Z,22.33
2018-08-28T10:27:10.754Z,22.34
2018-08-28T10:28:14.148Z,22.33
2018-08-28T10:29:17.623Z,22.33
2018-08-28T10:30:21.068Z,22.33
2018-08-28T10:31:24.540Z,22.33
2018-08-28T10:32:27.981Z,22.33
2018-08-28T10:33:31.380Z,22.29
2018-08-28T10:34:34.796Z,22.33
2018-08-28T10:35:38.265Z,22.34
2018-08-28T10:36:41.673Z,22.28
2018-08-28T10:37:45.052Z,22.34
2018-08-28T10:38:48.514Z,22.35
2018-08-28T10:39:51.924Z,22.35
2018-08-28T10:40:55.357Z,22.34
2018-08-28T10:41:58.767Z,22.30
2018-08-28T10:43:02.167Z,22.34
2018-08-28T10:44:05.643Z,22.36
2018-08-28T10:45:09.196Z,22.41
2018-08-28T10:46:12.610Z,22.41
2018-08-28T10:47:16.060Z,22.41
2018-08-28T10:48:19.538Z,22.42
2018-08-28T10:49:22.979Z,22.43
2018-08-28T10:50:26.374Z,22.43
2018-08-28T10:51:29.864Z,22.44
2018-08-28T10:52:33.294Z,22.40
2018-08-28T10:53:36.776Z,22.44
2018-08-28T10:54:40.226Z,22.43
2018-08-28T10:55:43.611Z,22.40
2018-08-28T10:56:47.024Z,22.38
2018-08-28T10:57:50.410Z,22.45
2018-08-28T10:58:53.825Z,22.45
2018-08-28T10:59:57.746Z,22.46
2018-08-28T11:01:01.259Z,22.45
2018-08-28T11:02:04.672Z,22.46
2018-08-28T11:03:08.119Z,22.43
2018-08-28T11:04:11.534Z,22.46
2018-08-28T11:05:14.993Z,22.43
2018-08-28T11:06:18.394Z,22.43
2018-08-28T11:07:21.790Z,22.43
2018-08-28T11:08:25.221Z,22.47
2018-08-28T11:09:28.683Z,22.48
2018-08-28T11:10:32.099Z,22.51
2018-08-28T11:11:35.527Z,22.51
2018-08-28T11:12:38.984Z,22.51
2018-08-28T11:13:42.411Z,22.50
2018-08-28T11:14:45.815Z,22.50
2018-08-28T11:15:49.206Z,22.45
2018-08-28T11:16:52.674Z,22.50
2018-08-28T11:17:56.208Z,22.47
2018-08-28T11:18:59.645Z,22.45
2018-08-28T11:20:03.121Z,22.48
2018-08-28T11:21:06.579Z,22.48
2018-08-28T11:22:10.203Z,22.46
2018-08-28T11:23:13.949Z,22.47
2018-08-28T11:24:17.520Z,22.46
2018-08-28T11:25:20.935Z,22.46
2018-08-28T11:26:24.998Z,22.46
2018-08-28T11:27:28.407Z,22.45
2018-08-28T11:28:31.792Z,22.44
2018-08-28T11:29:35.257Z,22.44
2018-08-28T11:30:38.640Z,22.43
2018-08-28T11:31:42.046Z,22.44
2018-08-28T11:32:45.499Z,22.43
2018-08-28T11:33:49.016Z,22.43
2018-08-28T11:34:52.541Z,22.42
2018-08-28T11:35:56.343Z,22.43
2018-08-28T11:36:59.770Z,22.41
2018-08-28T11:38:03.293Z,22.41
2018-08-28T11:39:07.583Z,22.42
2018-08-28T11:40:11.060Z,22.40
2018-08-28T11:41:14.505Z,22.42
2018-08-28T11:42:17.987Z,22.43
2018-08-28T11:43:21.513Z,22.42
2018-08-28T11:44:25.005Z,22.41
2018-08-28T11:45:28.502Z,22.43
2018-08-28T11:46:31.969Z,22.42
2018-08-28T11:47:35.912Z,22.43
2018-08-28T11:48:39.476Z,22.44
2018-08-28T11:49:45.885Z,22.39
2018-08-28T11:50:49.589Z,22.40
2018-08-28T11:51:53.311Z,22.45
2018-08-28T11:52:56.818Z,22.46
2018-08-28T11:54:00.557Z,22.45
2018-08-28T11:55:03.988Z,22.46
2018-08-28T11:56:07.508Z,22.47
2018-08-28T11:57:11.023Z,22.46
2018-08-28T11:58:14.469Z,22.47
2018-08-28T11:59:17.874Z,22.48
2018-08-28T12:00:21.337Z,22.50
2018-08-28T12:01:24.837Z,22.47
2018-08-28T12:02:28.318Z,22.45
2018-08-28T12:03:31.738Z,22.50
2018-08-28T12:04:35.141Z,22.46
2018-08-28T12:05:38.591Z,22.42
2018-08-28T12:06:42.165Z,22.53
2018-08-28T12:07:45.679Z,22.51
2018-08-28T12:08:48.987Z,22.51
2018-08-28T12:09:52.401Z,22.47
2018-08-28T12:10:55.856Z,22.50
2018-08-28T12:11:59.307Z,22.50
2018-08-28T12:13:02.702Z,22.50
2018-08-28T12:14:06.100Z,22.51
2018-08-28T12:15:09.534Z,22.51
2018-08-28T12:16:12.940Z,22.46
2018-08-28T12:17:16.406Z,22.43
2018-08-28T12:18:19.781Z,22.47
2018-08-28T12:19:24.005Z,22.50
2018-08-28T12:20:27.510Z,22.51
2018-08-28T12:21:31.069Z,22.50
2018-08-28T12:22:34.580Z,22.51
2018-08-28T12:23:37.997Z,22.50
2018-08-28T12:24:41.367Z,22.50
2018-08-28T12:25:44.975Z,22.50
2018-08-28T12:26:48.703Z,22.50
2018-08-28T12:27:52.121Z,22.50
2018-08-28T12:28:55.560Z,22.46
2018-08-28T12:29:59.007Z,22.50
2018-08-28T12:31:02.463Z,22.51
2018-08-28T12:32:05.933Z,22.50
2018-08-28T12:33:09.389Z,22.49
2018-08-28T12:34:12.785Z,22.51
2018-08-28T12:35:16.194Z,22.51
2018-08-28T12:36:19.630Z,22.52
2018-08-28T12:37:23.073Z,22.52
2018-08-28T12:38:26.505Z,22.51
2018-08-28T12:39:29.937Z,22.52
2018-08-28T12:40:33.369Z,22.52
2018-08-28T12:41:36.822Z,22.51
2018-08-28T12:42:40.222Z,22.52
2018-08-28T12:43:43.763Z,22.52
2018-08-28T12:44:47.128Z,22.51
2018-08-28T12:45:50.559Z,22.52
2018-08-28T12:46:54.441Z,22.52
2018-08-28T12:47:57.814Z,22.52
2018-08-28T12:49:01.260Z,22.52
2018-08-28T12:50:05.159Z,22.52
2018-08-28T12:51:08.688Z,22.52
2018-08-28T12:52:12.075Z,22.51
2018-08-28T12:53:15.553Z,22.52
2018-08-28T12:54:19.031Z,22.52
2018-08-28T12:55:22.433Z,22.53
2018-08-28T12:56:25.867Z,22.52
2018-08-28T12:57:29.260Z,22.52
2018-08-28T12:58:32.844Z,22.53
2018-08-28T12:59:36.271Z,22.52
2018-08-28T13:00:39.747Z,22.45
2018-08-28T13:01:43.111Z,22.52
2018-08-28T13:02:46.486Z,22.53
2018-08-28T13:03:49.895Z,22.52
2018-08-28T13:04:53.429Z,22.51
2018-08-28T13:05:57.132Z,22.50
2018-08-28T13:07:00.554Z,22.50
2018-08-28T13:08:03.954Z,22.49
2018-08-28T13:09:07.396Z,22.48
2018-08-28T13:10:10.793Z,22.46
2018-08-28T13:11:14.169Z,22.46
2018-08-28T13:12:17.604Z,22.45
2018-08-28T13:13:21.037Z,22.44
2018-08-28T13:14:24.548Z,22.42
2018-08-28T13:15:27.963Z,22.41
2018-08-28T13:16:31.603Z,22.37
2018-08-28T13:17:35.025Z,22.40
2018-08-28T13:18:38.386Z,22.40
2018-08-28T13:19:41.794Z,22.38
2018-08-28T13:20:45.197Z,22.39
2018-08-28T13:21:48.621Z,22.38
2018-08-28T13:22:52.239Z,22.32
2018-08-28T13:23:55.578Z,22.37
2018-08-28T13:24:59.257Z,22.36
2018-08-28T13:26:02.723Z,22.31
2018-08-28T13:27:06.392Z,22.33
2018-08-28T13:28:09.761Z,22.35
2018-08-28T13:29:13.180Z,22.34
2018-08-28T13:30:16.587Z,22.34
2018-08-28T13:31:19.978Z,22.35
2018-08-28T13:32:23.414Z,22.30
2018-08-28T13:33:26.861Z,22.34
2018-08-28T13:34:30.390Z,22.33
2018-08-28T13:35:33.812Z,22.33
2018-08-28T13:36:37.232Z,22.33
2018-08-28T13:37:40.615Z,22.33